• Join FlightAware (Why Join?)
  • Login
  • US Flag 
02:31AM EDT


 

Airport Tracker/Info


-or-


 

Live Flight TrackerFlight Track Log ✈ DAL6225 ✈ 02-May-2013 ✈ KMSN - KLGA

Flight Track Log - Related Links

Times and Time Zones

All times are in EDT time to prevent confusion due to time zone crossing. See the DAL6225 flight status page for this flight to view local times or setup timezone preferences in your user account.

Time Position Orientation Groundspeed Altitude Reporting Facility
EDT Latitude Longitude Course Direction KTS MPH feet Rate Location/Type
10:26AM 43.1717 -89.3208 90° East 166 191 37,000  Level Chicago Center
10:28AM 43.1703 -89.0922 90° East 268 308 8,300 -7,440 Descending Chicago Center
10:29AM 43.1586 -88.9833 98° East 289 333 10,900 2,220 Climbing Chicago Center
10:30AM 43.1531 -88.8692 94° East 297 342 12,900 1,320 Climbing Chicago Center
10:31AM 43.1428 -88.7283 96° East 351 404 13,700 1,320 Climbing Chicago Center
10:32AM 43.1344 -88.5911 95° East 363 418 15,700 1,980 Climbing Chicago Center
10:33AM 43.1256 -88.4389 95° East 376 433 17,800 1,740 Climbing Chicago Center
10:34AM 43.1172 -88.2925 94° East 387 445 19,300 1,560 Climbing Chicago Center
10:35AM 43.1228 -88.1408 87° East 401 461 21,100 1,680 Climbing Chicago Center
10:36AM 43.1300 -87.9894 86° East 401 461 22,800 1,500 Climbing Chicago Center
10:37AM 43.1389 -87.8008 86° East 413 475 24,300 1,260 Climbing Chicago Center
10:39AM 43.1458 -87.6369 87° East 428 493 25,500 1,140 Climbing Chicago Center
10:40AM 43.1522 -87.4728 87° East 433 498 26,700 1,140 Climbing Chicago Center
10:41AM 43.1603 -87.3064 86° East 437 503 27,900 1,080 Climbing Chicago Center
10:42AM 43.1675 -87.1397 87° East 440 506 29,000 1,020 Climbing Chicago Center
10:43AM 43.1731 -86.9714 87° East 442 509 30,100 1,260 Climbing Chicago Center
10:44AM 43.1817 -86.7703 87° East 442 509 31,600 1,200 Climbing Chicago Center
10:45AM 43.1883 -86.6039 87° East 438 504 32,600 960 Climbing Chicago Center
10:46AM 43.1933 -86.4350 88° East 443 510 33,600 960 Climbing Chicago Center
10:47AM 43.2000 -86.2669 87° East 441 507 34,700 1,080 Climbing Chicago Center
10:48AM 43.2061 -86.1000 87° East 436 502 35,900 960 Climbing Chicago Center
10:49AM 43.2103 -85.9317 88° East 433 498 36,700 480 Climbing Chicago Center
10:50AM 43.2142 -85.7636 88° East 434 499 37,000 120 Climbing Chicago Center
10:51AM 43.2183 -85.5922 88° East 445 512 37,000  Level Chicago Center
10:52AM 43.2233 -85.4153 88° East 457 526 37,000  Level Chicago Center
10:52AM 43.2247 -85.2964 89° East 450 518 37,000  Level Cleveland Center
10:53AM 43.2281 -85.1142 88° East 463 533 37,000  Level Cleveland Center
10:55AM 43.2306 -84.9347 89° East 468 539 37,000  Level Cleveland Center
10:55AM 43.2353 -84.7497 88° East 473 544 37,000  Level Cleveland Center
10:56AM 43.2378 -84.5675 89° East 473 544 37,000  Level Cleveland Center
10:58AM 43.2397 -84.3822 89° East 478 550 37,000  Level Cleveland Center
10:58AM 43.2436 -84.1972 88° East 478 550 37,000  Level Cleveland Center
10:59AM 43.2489 -84.0178 88° East 478 550 37,000  Level Cleveland Center
11:00AM 43.2486 -83.8183 90° East 473 544 37,000  Level Cleveland Center
11:02AM 43.2517 -83.6303 89° East 478 550 37,000  Level Cleveland Center
11:02AM 43.2542 -83.4508 89° East 478 550 37,000  Level Cleveland Center
11:04AM 43.2544 -83.2625 90° East 478 550 37,000  Level Cleveland Center
11:04AM 43.2542 -83.0831 90° East 478 550 37,000  Level Cleveland Center
11:05AM 43.2561 -82.8978 89° East 478 550 37,000  Level Cleveland Center
11:06AM 43.2553 -82.7153 90° East 478 550 37,000  Level Cleveland Center
11:07AM 43.2439 -82.5325 95° East 478 550 37,000  Level Cleveland Center
11:08AM 43.2333 -82.4667 102° East 480 552 37,000  Level Toronto Center
11:09AM 43.2167 -82.2833 97° East 480 552 37,000  Level Toronto Center
11:10AM 43.2000 -82.1000 97° East 480 552 37,000  Level Toronto Center
11:11AM 43.1833 -81.9167 97° East 480 552 37,000  Level Toronto Center
11:12AM 43.1833 -81.7667 90° East 480 552 37,000  Level Toronto Center
11:13AM 43.1667 -81.5833 97° East 480 552 37,000  Level Toronto Center
11:14AM 43.1500 -81.4000 97° East 470 541 37,000  Level Toronto Center
11:15AM 43.1333 -81.2167 97° East 470 541 37,000  Level Toronto Center
11:16AM 43.1167 -81.0333 97° East 470 541 37,000  Level Toronto Center
11:17AM 43.1000 -80.8500 97° East 470 541 37,000  Level Toronto Center
11:18AM 43.1000 -80.6667 90° East 470 541 37,000  Level Toronto Center
11:19AM 43.0833 -80.5000 98° East 470 541 37,000  Level Toronto Center
11:20AM 43.0833 -80.3167 90° East 470 541 37,000  Level Toronto Center
11:21AM 43.0500 -80.1333 104° East 470 541 37,000  Level Toronto Center
11:22AM 43.0500 -79.9833 90° East 470 541 37,000  Level Toronto Center
11:23AM 43.0333 -79.7667 96° East 470 541 37,000  Level Toronto Center
11:24AM 43.0167 -79.6167 99° East 460 529 37,000  Level Toronto Center
11:25AM 43.0000 -79.4333 97° East 460 529 37,000  Level Toronto Center
11:26AM 42.9833 -79.2667 98° East 460 529 37,000  Level Toronto Center
11:27AM 42.9667 -79.0833 97° East 460 529 37,000  Level Toronto Center
11:28AM 42.9500 -78.9333 99° East 460 529 37,000  Level Toronto Center
11:29AM 42.9333 -78.7500 97° East 460 529 37,000  Level Toronto Center
11:30AM 42.9167 -78.5667 97° East 460 529 37,000  Level Toronto Center
11:30AM 42.9194 -78.5419 81° East 461 531 37,000  Level Cleveland Center
11:31AM 42.9017 -78.3697 98° East 461 531 37,000  Level Cleveland Center
11:32AM 42.8836 -78.1975 98° East 461 531 37,000  Level Cleveland Center
11:33AM 42.8675 -78.0253 97° East 461 531 37,000  Level Cleveland Center
11:34AM 42.8489 -77.8531 98° East 461 531 37,000  Level Cleveland Center
11:35AM 42.8303 -77.6783 98° East 461 531 37,000  Level Cleveland Center
11:37AM 42.7667 -77.3667 105° East 470 541 37,000  Level Toronto Center
11:37AM 42.7742 -77.2919 82° East 452 520 37,000  Level Boston Center
11:38AM 42.7500 -77.1203 101° East 457 526 37,000  Level Boston Center
11:39AM 42.7239 -76.9458 101° East 457 526 37,000  Level Boston Center
11:40AM 42.6992 -76.7744 101° East 457 526 37,000  Level Boston Center
11:41AM 42.6742 -76.6061 101° East 457 526 37,000  Level Boston Center
11:42AM 42.6492 -76.4350 101° East 457 526 37,000  Level Boston Center
11:43AM 42.6222 -76.2442 101° East 457 526 37,000 -60 Level Boston Center
11:44AM 42.5967 -76.0703 101° East 457 526 36,900 -720 Descending Boston Center
11:45AM 42.5706 -75.9025 102° East 457 526 35,600 -1,380 Descending Boston Center
11:46AM 42.5425 -75.7289 102° East 457 526 34,200 -1,500 Descending Boston Center
11:47AM 42.5158 -75.5614 102° East 457 526 32,700 -1,500 Descending Boston Center
11:48AM 42.4894 -75.3853 101° East 457 526 31,200 -1,680 Descending Boston Center
11:49AM 42.4539 -75.2175 106° East 462 532 29,400 -1,860 Descending Boston Center
11:50AM 42.3994 -75.0606 115° Southeast 462 532 27,500 -2,400 Descending Boston Center
11:51AM 42.3422 -74.9064 117° Southeast 457 526 24,600 -2,100 Descending Boston Center
11:52AM 42.2850 -74.7525 117° Southeast 452 520 23,400 -1,920 Descending Boston Center
11:53AM 42.2297 -74.6019 116° Southeast 457 526 20,800 -2,160 Descending Boston Center
11:54AM 42.1761 -74.4572 117° Southeast 451 519 19,100 -1,440 Descending Boston Center
11:55AM 42.1264 -74.3183 116° Southeast 424 488 18,000 -600 Descending Boston Center
11:56AM 42.0825 -74.1939 115° Southeast 408 470 18,000  Level Boston Center
11:57AM 42.0303 -74.0556 117° Southeast 415 478 18,000 -60 Level Boston Center
11:58AM 41.9447 -73.9250 131° Southeast 420 483 17,900 -720 Descending Boston Center
11:59AM 41.8408 -73.8947 168° South 412 474 16,600 -1,860 Descending Boston Center
12:00PM 41.7161 -73.8697 171° South 417 480 14,200 -2,340 Descending Boston Center
12:01PM 41.6167 -73.8500 172° South 391 450 12,000 -2,040 Descending New York TRACON
12:02PM 41.5167 -73.8333 173° South 341 392 10,200 -1,500 Descending New York TRACON
12:03PM 41.4333 -73.8167 171° South 291 335 9,100 -600 Descending New York TRACON
12:04PM 41.3500 -73.8000 171° South 286 329 9,000 -600 Descending New York TRACON
12:05PM 41.2833 -73.7500 151° Southeast 275 316 8,000 -1,020 Descending New York TRACON
12:06PM 41.2167 -73.6833 143° Southeast 276 318 7,000 -1,020 Descending New York TRACON
12:07PM 41.1500 -73.6500 159° South 267 307 6,000 -1,020 Descending New York TRACON
12:08PM 41.0833 -73.6667 191° South 288 331 5,000 -1,080 Descending New York TRACON
12:09PM 41.0167 -73.7000 201° Southwest 268 308 4,000 -780 Descending New York TRACON
12:10PM 40.9500 -73.7333 201° Southwest 213 245 3,500 -540 Descending New York TRACON
12:11PM 40.9167 -73.7667 217° Southwest 205 236 3,000 -840 Descending New York TRACON
12:12PM 40.8667 -73.8000 207° Southwest 184 212 2,000 -900 Descending New York TRACON
12:13PM 40.8333 -73.8333 217° Southwest 139 160 1,200 -840 Descending New York TRACON
12:14PM 40.8000 -73.8667 217° Southwest 137 158 400 -840 Descending New York TRACON
12:16PM 40.7772 -73.8726 180° South  Level Estimated
12:23PM 40.7772 -73.8726 180° South  Level Estimated
12:24PM 40.7772 -73.8726 180° South  Level Estimated